Latest Coastal Weather Observations for Redland (Alexandra Hills)

IDQ60701

Issued at 11:22 pm EST Wednesday 10 August 2022 (issued every 10 minutes, with the page automatically refreshed every 10 minutes)

About coastal observations | Map of coastal stations | Coastal observations for QLD | Marine services | Other Formats
Station Details ID: 140007 Name: REDLAND (ALEXANDRA HILLS) Lat: -27.54 Lon: 153.24 Height: 50.53 m
Data from the previous 72 hours. | See also: Recent months at Redland (Alexandra Hills)
Date/Time
EST
Wind Sea
Height
m
Swell Vis
km
Cloud Weather Temp
°C
Press
MSL
hPa
Rain since
9am
mm
Dir  Spd
kts
Gust
kts
Height
m
Period
s
Dir
10/11:00pm S 5 9 - - - - - - - 13.3 - 0.0
10/10:30pm S 5 8 - - - - - - - 13.1 - 0.0
10/10:00pm S 6 9 - - - - - - - 13.2 - 0.0
10/09:30pm S 6 8 - - - - - - - 12.9 - 0.0
10/09:00pm S 5 8 - - - - - - - 13.0 - 0.0
10/08:30pm S 4 7 - - - - - - - 13.5 - 0.0
10/08:00pm SSE 5 8 - - - - - - - 13.8 - 0.0
10/07:30pm SSE 5 8 - - - - - - - 14.5 - 0.0
10/07:00pm SSE 5 10 - - - - - - - 15.2 - 0.0
10/06:30pm SSE 5 10 - - - - - - - 15.6 - 0.0
10/06:00pm SE 6 12 - - - - - - - 15.9 - 0.0
10/05:30pm SE 5 10 - - - - - - - 16.3 - 0.0
10/05:00pm SE 6 12 - - - - - - - 17.0 - 0.0
10/04:30pm SE 6 11 - - - - - - - 17.9 - 0.0
10/04:00pm SE 7 14 - - - - - - - 18.4 - 0.0
10/03:30pm SE 8 15 - - - - - - - 18.9 - 0.0
10/03:00pm SE 5 9 - - - - - - - 18.5 - 0.0
10/02:30pm SE 6 12 - - - - - - - 19.3 - 0.0
10/02:00pm SE 6 12 - - - - - - - 19.4 - 0.0
10/01:30pm SSE 7 12 - - - - - - - 19.6 - 0.0
10/01:00pm SE 9 17 - - - - - - - 19.6 - 0.0
10/12:30pm SE 8 14 - - - - - - - 19.6 - 0.0
10/12:00pm SSE 7 14 - - - - - - - 19.4 - 0.0
10/11:30am SSE 8 16 - - - - - - - 19.0 - 0.0
10/11:00am SSE 8 15 - - - - - - - 18.7 - 0.0
10/10:30am S 7 14 - - - - - - - 18.3 - 0.0
10/10:00am S 6 11 - - - - - - - 17.3 - 0.0
10/09:30am S 8 14 - - - - - - - 16.2 - 0.0
10/09:00am SW 5 8 - - - - - - - 14.8 - 0.0
10/08:30am SW 6 9 - - - - - - - 13.4 - 0.0
10/08:00am SW 4 7 - - - - - - - 11.9 - 0.0
10/07:30am SW 5 8 - - - - - - - 10.2 - 0.0
10/07:00am SW 4 5 - - - - - - - 9.0 - 0.0
10/06:30am WSW 4 7 - - - - - - - 8.6 - 0.0
10/06:00am SW 4 7 - - - - - - - 8.6 - 0.0
10/05:30am WSW 4 6 - - - - - - - 8.3 - 0.0
10/05:00am WSW 3 6 - - - - - - - 8.6 - 0.0
10/04:30am SW 4 6 - - - - - - - 9.4 - 0.0
10/04:00am SW 4 7 - - - - - - - 9.5 - 0.0
10/03:30am SW 4 6 - - - - - - - 9.2 - 0.0
10/03:00am SW 4 6 - - - - - - - 9.7 - 0.0
10/02:30am SW 4 6 - - - - - - - 9.8 - 0.0
10/02:00am SW 4 7 - - - - - - - 10.5 - 0.0
10/01:30am SSW 4 6 - - - - - - - 10.8 - 0.0
10/01:00am SW 3 4 - - - - - - - 11.2 - 0.0
10/12:30am WSW 3 5 - - - - - - - 12.6 - 0.0
10/12:00am SW 3 4 - - - - - - - 13.0 - 0.0
 
Date/Time
EST
Wind Sea
Height
m
Swell Vis
km
Cloud Weather Temp
°C
Press
MSL
hPa
Rain since
9am
mm
Dir  Spd
kts
Gust
kts
Height
m
Period
s
Dir
09/11:30pm S 4 6 - - - - - - - 13.4 - 0.0
09/11:00pm S 4 5 - - - - - - - 13.5 - 0.0
09/10:30pm S 3 5 - - - - - - - 13.8 - 0.0
09/10:00pm SSE 4 6 - - - - - - - 13.7 - 0.0
09/09:30pm SSE 4 7 - - - - - - - 14.1 - 0.0
09/09:00pm SSE 5 8 - - - - - - - 14.6 - 0.0
09/08:30pm SSE 5 10 - - - - - - - 14.5 - 0.0
09/08:00pm SSE 5 8 - - - - - - - 14.4 - 0.0
09/07:30pm SSE 5 9 - - - - - - - 14.9 - 0.0
09/07:00pm SSE 5 9 - - - - - - - 15.6 - 0.0
09/06:30pm SSE 6 10 - - - - - - - 15.5 - 0.0
09/06:00pm SE 4 7 - - - - - - - 15.4 - 0.0
09/05:30pm SE 4 7 - - - - - - - 15.8 - 0.0
09/05:00pm ESE 4 8 - - - - - - - 16.1 - 0.0
09/04:30pm ESE 4 8 - - - - - - - 17.4 - 0.0
09/04:00pm E 4 7 - - - - - - - 18.1 - 0.0
09/03:30pm E 4 7 - - - - - - - 18.8 - 0.0
09/03:00pm E 2 5 - - - - - - - 18.3 - 0.0
09/02:30pm SSW 2 6 - - - - - - - 18.9 - 0.0
09/02:00pm S 5 9 - - - - - - - 19.3 - 0.0
09/01:30pm SSW 4 8 - - - - - - - 20.4 - 0.0
09/01:00pm SSW 3 8 - - - - - - - 19.3 - 0.0
09/12:30pm SW 5 9 - - - - - - - 19.6 - 0.0
09/12:00pm SSW 5 10 - - - - - - - 19.2 - 0.0
09/11:30am SW 4 9 - - - - - - - 18.8 - 0.0
09/11:00am SSW 4 7 - - - - - - - 18.3 - 0.0
09/10:30am S 3 6 - - - - - - - 17.5 - 0.0
09/10:00am SSW 3 5 - - - - - - - 16.7 - 0.0
09/09:30am SW 4 7 - - - - - - - 15.6 - 0.0
09/09:00am SW 6 9 - - - - - - - 14.3 - 0.0
09/08:30am WSW 6 9 - - - - - - - 13.1 - 0.0
09/08:00am WSW 5 8 - - - - - - - 11.7 - 0.0
09/07:30am WSW 5 7 - - - - - - - 10.3 - 0.0
09/07:00am SW 3 7 - - - - - - - 8.7 - 0.0
09/06:30am WSW 4 6 - - - - - - - 8.2 - 0.0
09/06:00am SW 4 6 - - - - - - - 7.9 - 0.0
09/05:30am SW 3 5 - - - - - - - 8.4 - 0.0
09/05:00am WSW 4 6 - - - - - - - 8.6 - 0.0
09/04:30am WSW 4 6 - - - - - - - 8.7 - 0.0
09/04:00am WSW 4 6 - - - - - - - 9.0 - 0.0
09/03:30am SW 3 5 - - - - - - - 9.2 - 0.0
09/03:00am WSW 4 6 - - - - - - - 9.8 - 0.0
09/02:30am WSW 4 6 - - - - - - - 10.2 - 0.0
09/02:00am SW 4 6 - - - - - - - 10.3 - 0.0
09/01:30am WSW 6 10 - - - - - - - 10.9 - 0.0
09/01:00am WSW 5 8 - - - - - - - 11.1 - 0.0
09/12:30am SW 4 6 - - - - - - - 11.4 - 0.0
09/12:00am SW 4 5 - - - - - - - 11.8 - 0.0
 
Date/Time
EST
Wind Sea
Height
m
Swell Vis
km
Cloud Weather Temp
°C
Press
MSL
hPa
Rain since
9am
mm
Dir  Spd
kts
Gust
kts
Height
m
Period
s
Dir
08/11:30pm SSW 4 5 - - - - - - - 12.7 - 0.0
08/11:00pm S 5 7 - - - - - - - 12.8 - 0.0
08/10:30pm S 5 8 - - - - - - - 13.2 - 0.0
08/10:00pm SSE 4 7 - - - - - - - 13.3 - 0.0
08/09:30pm SSE 4 7 - - - - - - - 13.7 - 0.0
08/09:00pm SSE 5 8 - - - - - - - 13.7 - 0.0
08/08:30pm S 4 7 - - - - - - - 13.4 - 0.0
08/08:00pm SSE 4 6 - - - - - - - 13.4 - 0.0
08/07:30pm SE 3 5 - - - - - - - 12.8 - 0.0
08/07:00pm SE 3 4 - - - - - - - 12.8 - 0.0
08/06:30pm CALM 0 1 - - - - - - - 13.0 - 0.0
08/06:00pm CALM 0 0 - - - - - - - 14.6 - 0.0
08/05:30pm ESE 2 4 - - - - - - - 15.9 - 0.0
08/05:00pm ESE 5 9 - - - - - - - 16.8 - 0.0
08/04:30pm E 4 7 - - - - - - - 17.6 - 0.0
08/04:00pm E 3 7 - - - - - - - 18.5 - 0.0
08/03:30pm SSE 4 9 - - - - - - - 19.5 - 0.0
08/03:00pm SW 3 6 - - - - - - - 19.8 - 0.0
08/02:30pm SSW 5 9 - - - - - - - 19.5 - 0.0
08/02:00pm S 4 10 - - - - - - - 19.5 - 0.0
08/01:30pm SW 3 6 - - - - - - - 19.6 - 0.0
08/01:00pm SSW 5 10 - - - - - - - 19.0 - 0.0
08/12:30pm SW 5 7 - - - - - - - 18.9 - 0.0
08/12:00pm SW 3 6 - - - - - - - 18.7 - 0.0
08/11:30am SW 4 7 - - - - - - - 18.3 - 0.0
08/11:00am SW 4 9 - - - - - - - 17.6 - 0.0
08/10:30am SW 4 6 - - - - - - - 17.6 - 0.0
08/10:00am SSW 5 10 - - - - - - - 16.3 - 0.0
08/09:30am SW 8 12 - - - - - - - 15.1 - 0.0
08/09:00am SSW 7 12 - - - - - - - 14.1 - 0.0
08/08:30am SW 5 7 - - - - - - - 12.8 - 0.0
08/08:00am WSW 5 8 - - - - - - - 11.3 - 0.0
08/07:30am WSW 6 9 - - - - - - - 10.0 - 0.0
08/07:00am WSW 6 11 - - - - - - - 9.0 - 0.0
08/06:30am SW 6 9 - - - - - - - 8.1 - 0.0
08/06:00am WSW 7 9 - - - - - - - 8.4 - 0.0
08/05:30am WSW 6 8 - - - - - - - 8.6 - 0.0
08/05:00am WSW 6 8 - - - - - - - 8.4 - 0.0
08/04:30am SW 5 8 - - - - - - - 8.8 - 0.0
08/04:00am WSW 5 8 - - - - - - - 9.1 - 0.0
08/03:30am WSW 4 6 - - - - - - - 9.1 - 0.0
08/03:00am WSW 5 7 - - - - - - - 9.0 - 0.0
08/02:30am WSW 5 7 - - - - - - - 9.5 - 0.0
08/02:00am WSW 4 7 - - - - - - - 9.9 - 0.0
08/01:30am WSW 6 9 - - - - - - - 10.7 - 0.0
08/01:00am SW 4 6 - - - - - - - 9.9 - 0.0
08/12:30am S 2 5 - - - - - - - 9.9 - 0.0
08/12:00am W 6 10 - - - - - - - 11.4 - 0.0
 
Date/Time
EST
Wind Sea
Height
m
Swell Vis
km
Cloud Weather Temp
°C
Press
MSL
hPa
Rain since
9am
mm
Dir  Spd
kts
Gust
kts
Height
m
Period
s
Dir
07/11:30pm W 6 8 - - - - - - - 11.3 - 0.0

Other formats

Comma delimited format used in spreadsheet applications
http://www.bom.gov.au/fwo/IDQ60701/IDQ60701.94561.axf

JavaScript Object Notation format (JSON) in row-major order
http://www.bom.gov.au/fwo/IDQ60701/IDQ60701.94561.json

Data quality

Most of these data are generated automatically and are frequently updated. Quality checks on data are not normally performed. It is possible for incorrect values to appear. Refer to information at About Latest Weather Observations and please check the disclaimer before using these data.